sensor_id;sensor_type;location;lat;lon;timestamp;P1;durP1;ratioP1;P2;durP2;ratioP2
21647;SDS011;10985;54.182;7.890;2023-04-15T00:02:14;20.80;;;16.52;;
21647;SDS011;10985;54.182;7.890;2023-04-15T00:04:42;21.38;;;15.07;;
21647;SDS011;10985;54.182;7.890;2023-04-15T00:07:08;23.15;;;15.70;;
21647;SDS011;10985;54.182;7.890;2023-04-15T00:09:34;26.40;;;16.65;;
21647;SDS011;10985;54.182;7.890;2023-04-15T00:11:59;21.60;;;15.65;;
21647;SDS011;10985;54.182;7.890;2023-04-15T00:14:25;21.70;;;16.15;;
21647;SDS011;10985;54.182;7.890;2023-04-15T00:16:52;23.67;;;16.23;;
21647;SDS011;10985;54.182;7.890;2023-04-15T00:19:20;21.58;;;15.43;;
21647;SDS011;10985;54.182;7.890;2023-04-15T00:21:45;23.50;;;17.02;;
21647;SDS011;10985;54.182;7.890;2023-04-15T00:24:11;19.10;;;16.00;;
21647;SDS011;10985;54.182;7.890;2023-04-15T00:26:37;20.30;;;16.50;;
21647;SDS011;10985;54.182;7.890;2023-04-15T00:29:03;23.65;;;16.27;;
21647;SDS011;10985;54.182;7.890;2023-04-15T00:31:29;23.25;;;16.42;;
21647;SDS011;10985;54.182;7.890;2023-04-15T00:33:55;23.60;;;16.48;;
21647;SDS011;10985;54.182;7.890;2023-04-15T00:36:21;20.77;;;15.68;;
21647;SDS011;10985;54.182;7.890;2023-04-15T00:38:47;20.70;;;15.52;;
21647;SDS011;10985;54.182;7.890;2023-04-15T00:41:13;18.48;;;14.90;;
21647;SDS011;10985;54.182;7.890;2023-04-15T00:43:38;16.75;;;13.30;;
21647;SDS011;10985;54.182;7.890;2023-04-15T00:46:04;18.20;;;13.68;;
21647;SDS011;10985;54.182;7.890;2023-04-15T00:48:30;16.48;;;13.65;;
21647;SDS011;10985;54.182;7.890;2023-04-15T00:50:56;15.63;;;12.80;;
21647;SDS011;10985;54.182;7.890;2023-04-15T00:53:22;21.58;;;13.10;;
21647;SDS011;10985;54.182;7.890;2023-04-15T00:55:48;15.30;;;11.30;;
21647;SDS011;10985;54.182;7.890;2023-04-15T00:58:13;14.43;;;10.85;;
21647;SDS011;10985;54.182;7.890;2023-04-15T01:00:40;16.15;;;10.80;;
21647;SDS011;10985;54.182;7.890;2023-04-15T01:03:07;20.23;;;11.52;;
21647;SDS011;10985;54.182;7.890;2023-04-15T01:05:32;19.02;;;10.82;;
21647;SDS011;10985;54.182;7.890;2023-04-15T01:07:58;19.20;;;11.45;;
21647;SDS011;10985;54.182;7.890;2023-04-15T01:10:24;10.13;;;8.88;;
21647;SDS011;10985;54.182;7.890;2023-04-15T01:12:49;11.75;;;8.52;;
21647;SDS011;10985;54.182;7.890;2023-04-15T01:15:15;12.35;;;8.30;;
21647;SDS011;10985;54.182;7.890;2023-04-15T01:17:41;10.25;;;7.88;;
21647;SDS011;10985;54.182;7.890;2023-04-15T01:20:07;11.00;;;9.10;;
21647;SDS011;10985;54.182;7.890;2023-04-15T01:22:36;16.90;;;9.30;;
21647;SDS011;10985;54.182;7.890;2023-04-15T01:25:06;12.35;;;8.32;;
21647;SDS011;10985;54.182;7.890;2023-04-15T01:27:39;13.00;;;9.80;;
21647;SDS011;10985;54.182;7.890;2023-04-15T01:30:06;17.65;;;11.02;;
21647;SDS011;10985;54.182;7.890;2023-04-15T01:32:33;17.42;;;11.40;;
21647;SDS011;10985;54.182;7.890;2023-04-15T01:34:58;16.98;;;12.10;;
21647;SDS011;10985;54.182;7.890;2023-04-15T01:37:24;20.23;;;12.93;;
21647;SDS011;10985;54.182;7.890;2023-04-15T01:39:50;18.73;;;12.73;;
21647;SDS011;10985;54.182;7.890;2023-04-15T01:42:16;18.52;;;13.55;;
21647;SDS011;10985;54.182;7.890;2023-04-15T01:44:41;22.25;;;13.68;;
21647;SDS011;10985;54.182;7.890;2023-04-15T01:47:07;17.10;;;13.25;;
21647;SDS011;10985;54.182;7.890;2023-04-15T01:49:32;21.17;;;14.45;;
21647;SDS011;10985;54.182;7.890;2023-04-15T01:51:58;19.70;;;14.55;;
21647;SDS011;10985;54.182;7.890;2023-04-15T01:54:24;19.17;;;14.15;;
21647;SDS011;10985;54.182;7.890;2023-04-15T01:56:51;22.95;;;14.95;;
21647;SDS011;10985;54.182;7.890;2023-04-15T01:59:17;23.27;;;15.07;;
21647;SDS011;10985;54.182;7.890;2023-04-15T02:01:42;26.38;;;15.32;;
21647;SDS011;10985;54.182;7.890;2023-04-15T02:04:09;20.33;;;14.68;;
21647;SDS011;10985;54.182;7.890;2023-04-15T02:06:40;23.35;;;14.60;;
21647;SDS011;10985;54.182;7.890;2023-04-15T02:09:08;20.55;;;15.40;;
21647;SDS011;10985;54.182;7.890;2023-04-15T02:11:34;20.75;;;15.50;;
21647;SDS011;10985;54.182;7.890;2023-04-15T02:14:01;22.40;;;15.15;;
21647;SDS011;10985;54.182;7.890;2023-04-15T02:16:30;21.33;;;15.25;;
21647;SDS011;10985;54.182;7.890;2023-04-15T02:18:57;24.60;;;14.80;;
21647;SDS011;10985;54.182;7.890;2023-04-15T02:21:24;18.08;;;14.80;;
21647;SDS011;10985;54.182;7.890;2023-04-15T02:23:50;20.05;;;14.00;;
21647;SDS011;10985;54.182;7.890;2023-04-15T02:26:17;22.20;;;15.05;;
21647;SDS011;10985;54.182;7.890;2023-04-15T02:28:43;24.20;;;15.13;;
21647;SDS011;10985;54.182;7.890;2023-04-15T02:31:09;23.92;;;15.93;;
21647;SDS011;10985;54.182;7.890;2023-04-15T02:33:34;24.45;;;16.35;;
21647;SDS011;10985;54.182;7.890;2023-04-15T02:36:01;20.50;;;16.23;;
21647;SDS011;10985;54.182;7.890;2023-04-15T02:38:26;21.25;;;16.20;;
21647;SDS011;10985;54.182;7.890;2023-04-15T02:40:52;24.33;;;16.88;;
21647;SDS011;10985;54.182;7.890;2023-04-15T02:43:17;21.55;;;16.42;;
21647;SDS011;10985;54.182;7.890;2023-04-15T02:45:43;24.55;;;17.02;;
21647;SDS011;10985;54.182;7.890;2023-04-15T02:48:10;24.80;;;17.33;;
21647;SDS011;10985;54.182;7.890;2023-04-15T02:50:35;23.02;;;16.13;;
21647;SDS011;10985;54.182;7.890;2023-04-15T02:53:03;22.25;;;17.08;;
21647;SDS011;10985;54.182;7.890;2023-04-15T02:55:29;23.65;;;16.70;;
21647;SDS011;10985;54.182;7.890;2023-04-15T02:57:55;20.55;;;16.05;;
21647;SDS011;10985;54.182;7.890;2023-04-15T03:00:23;19.38;;;14.88;;
21647;SDS011;10985;54.182;7.890;2023-04-15T03:02:49;22.38;;;15.95;;
21647;SDS011;10985;54.182;7.890;2023-04-15T03:05:20;23.17;;;16.02;;
21647;SDS011;10985;54.182;7.890;2023-04-15T03:07:48;24.45;;;17.77;;
21647;SDS011;10985;54.182;7.890;2023-04-15T03:10:14;30.10;;;17.85;;
21647;SDS011;10985;54.182;7.890;2023-04-15T03:12:39;23.70;;;16.65;;
21647;SDS011;10985;54.182;7.890;2023-04-15T03:15:05;24.88;;;17.10;;
21647;SDS011;10985;54.182;7.890;2023-04-15T03:17:32;23.85;;;15.95;;
21647;SDS011;10985;54.182;7.890;2023-04-15T03:19:58;29.45;;;16.67;;
21647;SDS011;10985;54.182;7.890;2023-04-15T03:22:25;25.27;;;15.63;;
21647;SDS011;10985;54.182;7.890;2023-04-15T03:24:50;22.63;;;14.52;;
21647;SDS011;10985;54.182;7.890;2023-04-15T03:27:16;19.73;;;14.73;;
21647;SDS011;10985;54.182;7.890;2023-04-15T03:29:41;23.52;;;14.90;;
21647;SDS011;10985;54.182;7.890;2023-04-15T03:32:06;16.55;;;13.10;;
21647;SDS011;10985;54.182;7.890;2023-04-15T03:34:32;21.00;;;12.18;;
21647;SDS011;10985;54.182;7.890;2023-04-15T03:36:57;18.15;;;12.02;;
21647;SDS011;10985;54.182;7.890;2023-04-15T03:39:23;18.63;;;12.73;;
21647;SDS011;10985;54.182;7.890;2023-04-15T03:41:48;15.82;;;11.52;;
21647;SDS011;10985;54.182;7.890;2023-04-15T03:44:14;15.73;;;11.75;;
21647;SDS011;10985;54.182;7.890;2023-04-15T03:46:40;20.60;;;14.00;;
21647;SDS011;10985;54.182;7.890;2023-04-15T03:49:05;18.25;;;12.82;;
21647;SDS011;10985;54.182;7.890;2023-04-15T03:51:31;19.40;;;12.73;;
21647;SDS011;10985;54.182;7.890;2023-04-15T03:53:56;21.92;;;14.18;;
21647;SDS011;10985;54.182;7.890;2023-04-15T03:56:22;22.77;;;14.35;;
21647;SDS011;10985;54.182;7.890;2023-04-15T03:58:48;21.38;;;12.90;;
21647;SDS011;10985;54.182;7.890;2023-04-15T04:01:13;17.58;;;12.10;;
21647;SDS011;10985;54.182;7.890;2023-04-15T04:03:40;17.83;;;12.43;;
21647;SDS011;10985;54.182;7.890;2023-04-15T04:06:06;19.27;;;12.23;;
21647;SDS011;10985;54.182;7.890;2023-04-15T04:08:32;19.63;;;11.57;;
21647;SDS011;10985;54.182;7.890;2023-04-15T04:10:57;23.92;;;12.38;;
21647;SDS011;10985;54.182;7.890;2023-04-15T04:13:23;23.35;;;12.55;;
21647;SDS011;10985;54.182;7.890;2023-04-15T04:15:48;24.58;;;12.43;;
21647;SDS011;10985;54.182;7.890;2023-04-15T04:18:14;29.65;;;13.02;;
21647;SDS011;10985;54.182;7.890;2023-04-15T04:20:40;22.02;;;12.77;;
21647;SDS011;10985;54.182;7.890;2023-04-15T04:23:05;20.02;;;13.07;;
21647;SDS011;10985;54.182;7.890;2023-04-15T04:25:31;23.23;;;12.65;;
21647;SDS011;10985;54.182;7.890;2023-04-15T04:27:57;19.98;;;12.68;;
21647;SDS011;10985;54.182;7.890;2023-04-15T04:30:22;20.73;;;11.73;;
21647;SDS011;10985;54.182;7.890;2023-04-15T04:32:48;28.90;;;12.38;;
21647;SDS011;10985;54.182;7.890;2023-04-15T04:35:14;23.15;;;11.85;;
21647;SDS011;10985;54.182;7.890;2023-04-15T04:37:40;21.40;;;11.57;;
21647;SDS011;10985;54.182;7.890;2023-04-15T04:40:06;19.10;;;12.60;;
21647;SDS011;10985;54.182;7.890;2023-04-15T04:42:32;18.45;;;11.55;;
21647;SDS011;10985;54.182;7.890;2023-04-15T04:44:57;20.67;;;13.05;;
21647;SDS011;10985;54.182;7.890;2023-04-15T04:47:23;19.98;;;12.73;;
21647;SDS011;10985;54.182;7.890;2023-04-15T04:49:48;21.02;;;13.98;;
21647;SDS011;10985;54.182;7.890;2023-04-15T04:52:14;22.88;;;14.38;;
21647;SDS011;10985;54.182;7.890;2023-04-15T04:54:40;27.05;;;13.23;;
21647;SDS011;10985;54.182;7.890;2023-04-15T04:57:05;22.35;;;13.32;;
21647;SDS011;10985;54.182;7.890;2023-04-15T04:59:32;19.00;;;12.98;;
21647;SDS011;10985;54.182;7.890;2023-04-15T05:01:57;22.60;;;13.48;;
21647;SDS011;10985;54.182;7.890;2023-04-15T05:04:23;24.42;;;14.45;;
21647;SDS011;10985;54.182;7.890;2023-04-15T05:06:50;22.92;;;13.35;;
21647;SDS011;10985;54.182;7.890;2023-04-15T05:09:15;20.23;;;13.57;;
21647;SDS011;10985;54.182;7.890;2023-04-15T05:11:41;27.58;;;12.55;;
21647;SDS011;10985;54.182;7.890;2023-04-15T05:14:06;26.27;;;13.00;;
21647;SDS011;10985;54.182;7.890;2023-04-15T05:16:32;21.88;;;14.20;;
21647;SDS011;10985;54.182;7.890;2023-04-15T05:18:57;24.83;;;13.20;;
21647;SDS011;10985;54.182;7.890;2023-04-15T05:21:23;20.63;;;12.38;;
21647;SDS011;10985;54.182;7.890;2023-04-15T05:23:48;24.50;;;11.98;;
21647;SDS011;10985;54.182;7.890;2023-04-15T05:26:14;18.67;;;11.85;;
21647;SDS011;10985;54.182;7.890;2023-04-15T05:28:40;25.10;;;12.60;;
21647;SDS011;10985;54.182;7.890;2023-04-15T05:31:05;19.30;;;12.30;;
21647;SDS011;10985;54.182;7.890;2023-04-15T05:33:31;20.33;;;12.93;;
21647;SDS011;10985;54.182;7.890;2023-04-15T05:35:56;18.77;;;12.45;;
21647;SDS011;10985;54.182;7.890;2023-04-15T05:38:22;17.92;;;11.48;;
21647;SDS011;10985;54.182;7.890;2023-04-15T05:40:47;19.33;;;11.93;;
21647;SDS011;10985;54.182;7.890;2023-04-15T05:43:13;23.92;;;12.43;;
21647;SDS011;10985;54.182;7.890;2023-04-15T05:45:38;20.55;;;11.80;;
21647;SDS011;10985;54.182;7.890;2023-04-15T05:48:04;25.27;;;12.30;;
21647;SDS011;10985;54.182;7.890;2023-04-15T05:50:30;28.92;;;12.68;;
21647;SDS011;10985;54.182;7.890;2023-04-15T05:52:55;22.85;;;12.10;;
21647;SDS011;10985;54.182;7.890;2023-04-15T05:55:21;27.83;;;13.02;;
21647;SDS011;10985;54.182;7.890;2023-04-15T05:57:46;19.17;;;11.95;;
21647;SDS011;10985;54.182;7.890;2023-04-15T06:00:12;13.13;;;11.05;;
21647;SDS011;10985;54.182;7.890;2023-04-15T06:02:39;19.33;;;11.30;;
21647;SDS011;10985;54.182;7.890;2023-04-15T06:05:05;23.30;;;13.27;;
21647;SDS011;10985;54.182;7.890;2023-04-15T06:07:35;28.13;;;12.90;;
21647;SDS011;10985;54.182;7.890;2023-04-15T06:10:01;31.42;;;13.20;;
21647;SDS011;10985;54.182;7.890;2023-04-15T06:12:27;22.25;;;12.50;;
21647;SDS011;10985;54.182;7.890;2023-04-15T06:14:53;25.45;;;12.35;;
21647;SDS011;10985;54.182;7.890;2023-04-15T06:17:18;25.50;;;13.02;;
21647;SDS011;10985;54.182;7.890;2023-04-15T06:19:44;24.42;;;12.95;;
21647;SDS011;10985;54.182;7.890;2023-04-15T06:22:09;31.77;;;12.65;;
21647;SDS011;10985;54.182;7.890;2023-04-15T06:24:35;24.52;;;13.50;;
21647;SDS011;10985;54.182;7.890;2023-04-15T06:27:01;23.83;;;12.25;;
21647;SDS011;10985;54.182;7.890;2023-04-15T06:29:27;28.38;;;12.43;;
21647;SDS011;10985;54.182;7.890;2023-04-15T06:31:52;20.83;;;11.90;;
21647;SDS011;10985;54.182;7.890;2023-04-15T06:34:18;21.95;;;11.80;;
21647;SDS011;10985;54.182;7.890;2023-04-15T06:36:43;25.05;;;12.23;;
21647;SDS011;10985;54.182;7.890;2023-04-15T06:39:09;23.13;;;12.50;;
21647;SDS011;10985;54.182;7.890;2023-04-15T06:41:35;20.13;;;12.52;;
21647;SDS011;10985;54.182;7.890;2023-04-15T06:44:00;22.67;;;11.73;;
21647;SDS011;10985;54.182;7.890;2023-04-15T06:46:26;17.25;;;10.98;;
21647;SDS011;10985;54.182;7.890;2023-04-15T06:48:51;17.13;;;11.20;;
21647;SDS011;10985;54.182;7.890;2023-04-15T06:51:17;29.05;;;11.98;;
21647;SDS011;10985;54.182;7.890;2023-04-15T06:53:43;19.67;;;11.48;;
21647;SDS011;10985;54.182;7.890;2023-04-15T06:56:08;25.80;;;12.07;;
21647;SDS011;10985;54.182;7.890;2023-04-15T06:58:34;24.65;;;11.93;;
21647;SDS011;10985;54.182;7.890;2023-04-15T07:01:00;20.25;;;11.45;;
21647;SDS011;10985;54.182;7.890;2023-04-15T07:03:26;24.05;;;12.43;;
21647;SDS011;10985;54.182;7.890;2023-04-15T07:05:51;30.73;;;12.15;;
21647;SDS011;10985;54.182;7.890;2023-04-15T07:08:17;23.30;;;12.23;;
21647;SDS011;10985;54.182;7.890;2023-04-15T07:10:43;23.75;;;11.82;;
21647;SDS011;10985;54.182;7.890;2023-04-15T07:13:10;32.33;;;13.20;;
21647;SDS011;10985;54.182;7.890;2023-04-15T07:15:35;22.77;;;12.20;;
21647;SDS011;10985;54.182;7.890;2023-04-15T07:18:01;23.30;;;12.05;;
21647;SDS011;10985;54.182;7.890;2023-04-15T07:20:26;27.30;;;12.27;;
21647;SDS011;10985;54.182;7.890;2023-04-15T07:22:52;23.95;;;12.52;;
21647;SDS011;10985;54.182;7.890;2023-04-15T07:25:17;24.55;;;11.82;;
21647;SDS011;10985;54.182;7.890;2023-04-15T07:27:43;27.42;;;12.23;;
21647;SDS011;10985;54.182;7.890;2023-04-15T07:30:09;23.98;;;11.02;;
21647;SDS011;10985;54.182;7.890;2023-04-15T07:32:35;26.23;;;11.30;;
21647;SDS011;10985;54.182;7.890;2023-04-15T07:35:00;19.08;;;10.73;;
21647;SDS011;10985;54.182;7.890;2023-04-15T07:37:27;22.33;;;12.25;;
21647;SDS011;10985;54.182;7.890;2023-04-15T07:39:53;28.27;;;12.05;;
21647;SDS011;10985;54.182;7.890;2023-04-15T07:42:19;23.50;;;10.73;;
21647;SDS011;10985;54.182;7.890;2023-04-15T07:44:45;24.42;;;11.32;;
21647;SDS011;10985;54.182;7.890;2023-04-15T07:47:10;34.05;;;11.90;;
21647;SDS011;10985;54.182;7.890;2023-04-15T07:49:36;19.85;;;11.02;;
21647;SDS011;10985;54.182;7.890;2023-04-15T07:52:01;21.92;;;10.43;;
21647;SDS011;10985;54.182;7.890;2023-04-15T07:54:27;21.45;;;9.93;;
21647;SDS011;10985;54.182;7.890;2023-04-15T07:56:53;18.05;;;10.43;;
21647;SDS011;10985;54.182;7.890;2023-04-15T07:59:19;21.95;;;10.75;;
21647;SDS011;10985;54.182;7.890;2023-04-15T08:01:44;29.40;;;11.27;;
21647;SDS011;10985;54.182;7.890;2023-04-15T08:04:10;24.48;;;9.95;;
21647;SDS011;10985;54.182;7.890;2023-04-15T08:06:36;24.75;;;9.95;;
21647;SDS011;10985;54.182;7.890;2023-04-15T08:09:03;25.30;;;9.38;;
21647;SDS011;10985;54.182;7.890;2023-04-15T08:11:29;20.52;;;9.00;;
21647;SDS011;10985;54.182;7.890;2023-04-15T08:13:55;17.02;;;9.50;;
21647;SDS011;10985;54.182;7.890;2023-04-15T08:16:21;16.75;;;8.43;;
21647;SDS011;10985;54.182;7.890;2023-04-15T08:18:49;22.38;;;8.85;;
21647;SDS011;10985;54.182;7.890;2023-04-15T08:21:15;20.58;;;8.60;;
21647;SDS011;10985;54.182;7.890;2023-04-15T08:23:42;18.60;;;8.50;;
21647;SDS011;10985;54.182;7.890;2023-04-15T08:26:08;22.95;;;7.97;;
21647;SDS011;10985;54.182;7.890;2023-04-15T08:28:34;30.80;;;8.50;;
21647;SDS011;10985;54.182;7.890;2023-04-15T08:31:01;21.67;;;7.80;;
21647;SDS011;10985;54.182;7.890;2023-04-15T08:33:27;18.33;;;7.55;;
21647;SDS011;10985;54.182;7.890;2023-04-15T08:35:53;24.17;;;7.57;;
21647;SDS011;10985;54.182;7.890;2023-04-15T08:38:18;22.73;;;8.38;;
21647;SDS011;10985;54.182;7.890;2023-04-15T08:40:44;23.48;;;7.45;;
21647;SDS011;10985;54.182;7.890;2023-04-15T08:43:23;16.38;;;7.18;;
21647;SDS011;10985;54.182;7.890;2023-04-15T08:45:52;17.48;;;7.20;;
21647;SDS011;10985;54.182;7.890;2023-04-15T08:48:18;15.93;;;7.50;;
21647;SDS011;10985;54.182;7.890;2023-04-15T08:50:45;27.48;;;7.80;;
21647;SDS011;10985;54.182;7.890;2023-04-15T08:53:11;24.17;;;7.68;;
21647;SDS011;10985;54.182;7.890;2023-04-15T08:55:44;14.07;;;7.00;;
21647;SDS011;10985;54.182;7.890;2023-04-15T08:58:11;25.30;;;8.25;;
21647;SDS011;10985;54.182;7.890;2023-04-15T09:00:37;31.05;;;7.75;;
21647;SDS011;10985;54.182;7.890;2023-04-15T09:03:04;23.08;;;7.35;;
21647;SDS011;10985;54.182;7.890;2023-04-15T09:05:35;29.45;;;7.18;;
21647;SDS011;10985;54.182;7.890;2023-04-15T09:08:01;24.20;;;7.53;;
21647;SDS011;10985;54.182;7.890;2023-04-15T09:10:28;19.45;;;6.53;;
21647;SDS011;10985;54.182;7.890;2023-04-15T09:12:54;24.25;;;8.48;;
21647;SDS011;10985;54.182;7.890;2023-04-15T09:15:20;15.60;;;7.28;;
21647;SDS011;10985;54.182;7.890;2023-04-15T09:17:46;19.67;;;7.38;;
21647;SDS011;10985;54.182;7.890;2023-04-15T09:20:13;16.73;;;7.00;;
21647;SDS011;10985;54.182;7.890;2023-04-15T09:22:40;16.75;;;6.65;;
21647;SDS011;10985;54.182;7.890;2023-04-15T09:27:57;19.10;;;6.50;;
21647;SDS011;10985;54.182;7.890;2023-04-15T09:30:24;19.50;;;6.32;;
21647;SDS011;10985;54.182;7.890;2023-04-15T09:32:52;23.55;;;7.00;;
21647;SDS011;10985;54.182;7.890;2023-04-15T09:35:19;20.95;;;6.22;;
21647;SDS011;10985;54.182;7.890;2023-04-15T09:37:45;19.35;;;6.55;;
21647;SDS011;10985;54.182;7.890;2023-04-15T09:40:11;19.33;;;7.20;;
21647;SDS011;10985;54.182;7.890;2023-04-15T09:42:55;19.50;;;6.35;;
21647;SDS011;10985;54.182;7.890;2023-04-15T09:45:21;19.52;;;6.78;;
21647;SDS011;10985;54.182;7.890;2023-04-15T09:47:47;20.05;;;6.25;;
21647;SDS011;10985;54.182;7.890;2023-04-15T09:50:12;30.00;;;6.70;;
21647;SDS011;10985;54.182;7.890;2023-04-15T09:52:42;17.90;;;6.00;;
21647;SDS011;10985;54.182;7.890;2023-04-15T09:55:08;21.35;;;6.00;;
21647;SDS011;10985;54.182;7.890;2023-04-15T09:57:35;25.20;;;7.20;;
21647;SDS011;10985;54.182;7.890;2023-04-15T10:00:02;13.10;;;6.40;;
21647;SDS011;10985;54.182;7.890;2023-04-15T10:02:30;22.60;;;6.25;;
21647;SDS011;10985;54.182;7.890;2023-04-15T10:04:56;28.60;;;6.60;;
21647;SDS011;10985;54.182;7.890;2023-04-15T10:07:22;18.05;;;6.47;;
21647;SDS011;10985;54.182;7.890;2023-04-15T10:09:49;23.75;;;7.00;;
21647;SDS011;10985;54.182;7.890;2023-04-15T10:12:16;21.90;;;6.70;;
21647;SDS011;10985;54.182;7.890;2023-04-15T10:14:42;18.88;;;6.35;;
21647;SDS011;10985;54.182;7.890;2023-04-15T10:17:10;22.95;;;6.80;;
21647;SDS011;10985;54.182;7.890;2023-04-15T10:19:38;27.08;;;6.55;;
21647;SDS011;10985;54.182;7.890;2023-04-15T10:22:05;24.42;;;6.63;;
21647;SDS011;10985;54.182;7.890;2023-04-15T10:24:31;25.73;;;6.05;;
21647;SDS011;10985;54.182;7.890;2023-04-15T10:26:57;21.40;;;5.90;;
21647;SDS011;10985;54.182;7.890;2023-04-15T10:29:24;22.33;;;5.80;;
21647;SDS011;10985;54.182;7.890;2023-04-15T10:31:55;18.83;;;5.80;;
21647;SDS011;10985;54.182;7.890;2023-04-15T10:34:22;21.60;;;6.28;;
21647;SDS011;10985;54.182;7.890;2023-04-15T10:36:48;25.08;;;6.28;;
21647;SDS011;10985;54.182;7.890;2023-04-15T10:42:17;25.48;;;6.22;;
21647;SDS011;10985;54.182;7.890;2023-04-15T10:44:44;20.70;;;6.53;;
21647;SDS011;10985;54.182;7.890;2023-04-15T10:47:17;19.25;;;6.43;;
21647;SDS011;10985;54.182;7.890;2023-04-15T10:49:49;19.02;;;6.10;;
21647;SDS011;10985;54.182;7.890;2023-04-15T10:52:17;19.38;;;5.78;;
21647;SDS011;10985;54.182;7.890;2023-04-15T10:54:47;20.10;;;6.72;;
21647;SDS011;10985;54.182;7.890;2023-04-15T10:57:14;15.88;;;6.35;;
21647;SDS011;10985;54.182;7.890;2023-04-15T11:02:37;18.25;;;5.55;;
21647;SDS011;10985;54.182;7.890;2023-04-15T11:05:20;13.80;;;6.68;;
21647;SDS011;10985;54.182;7.890;2023-04-15T11:12:42;19.45;;;6.57;;
21647;SDS011;10985;54.182;7.890;2023-04-15T11:17:54;23.50;;;6.70;;
21647;SDS011;10985;54.182;7.890;2023-04-15T11:20:24;26.67;;;6.28;;
21647;SDS011;10985;54.182;7.890;2023-04-15T11:22:51;17.00;;;6.68;;
21647;SDS011;10985;54.182;7.890;2023-04-15T11:25:21;18.17;;;6.28;;
21647;SDS011;10985;54.182;7.890;2023-04-15T11:27:48;21.55;;;6.95;;
21647;SDS011;10985;54.182;7.890;2023-04-15T11:30:21;23.60;;;6.72;;
21647;SDS011;10985;54.182;7.890;2023-04-15T11:32:48;16.55;;;6.80;;
21647;SDS011;10985;54.182;7.890;2023-04-15T11:35:15;23.13;;;6.68;;
21647;SDS011;10985;54.182;7.890;2023-04-15T11:37:42;20.73;;;6.65;;
21647;SDS011;10985;54.182;7.890;2023-04-15T11:40:09;19.80;;;6.70;;
21647;SDS011;10985;54.182;7.890;2023-04-15T11:42:34;26.33;;;6.55;;
21647;SDS011;10985;54.182;7.890;2023-04-15T11:45:09;23.63;;;7.78;;
21647;SDS011;10985;54.182;7.890;2023-04-15T11:47:36;27.75;;;8.23;;
21647;SDS011;10985;54.182;7.890;2023-04-15T11:50:18;24.63;;;7.00;;
21647;SDS011;10985;54.182;7.890;2023-04-15T11:52:54;23.70;;;6.97;;
21647;SDS011;10985;54.182;7.890;2023-04-15T11:55:22;27.33;;;8.25;;
21647;SDS011;10985;54.182;7.890;2023-04-15T11:57:49;26.70;;;7.80;;
21647;SDS011;10985;54.182;7.890;2023-04-15T12:00:15;29.75;;;8.82;;
21647;SDS011;10985;54.182;7.890;2023-04-15T12:02:41;28.10;;;9.35;;
21647;SDS011;10985;54.182;7.890;2023-04-15T12:05:07;30.60;;;9.38;;
21647;SDS011;10985;54.182;7.890;2023-04-15T12:07:56;28.77;;;9.93;;
21647;SDS011;10985;54.182;7.890;2023-04-15T12:10:25;31.58;;;11.13;;
21647;SDS011;10985;54.182;7.890;2023-04-15T12:12:53;40.72;;;11.77;;
21647;SDS011;10985;54.182;7.890;2023-04-15T12:15:22;34.28;;;12.82;;
21647;SDS011;10985;54.182;7.890;2023-04-15T12:17:48;37.95;;;13.88;;
21647;SDS011;10985;54.182;7.890;2023-04-15T12:20:23;43.17;;;13.35;;
21647;SDS011;10985;54.182;7.890;2023-04-15T12:22:49;36.33;;;13.63;;
21647;SDS011;10985;54.182;7.890;2023-04-15T12:25:15;40.28;;;14.52;;
21647;SDS011;10985;54.182;7.890;2023-04-15T12:27:40;41.05;;;15.63;;
21647;SDS011;10985;54.182;7.890;2023-04-15T12:30:14;42.05;;;16.30;;
21647;SDS011;10985;54.182;7.890;2023-04-15T12:32:39;53.58;;;16.90;;
21647;SDS011;10985;54.182;7.890;2023-04-15T12:35:06;49.40;;;16.80;;
21647;SDS011;10985;54.182;7.890;2023-04-15T12:37:33;43.80;;;18.10;;
21647;SDS011;10985;54.182;7.890;2023-04-15T12:39:58;59.28;;;19.02;;
21647;SDS011;10985;54.182;7.890;2023-04-15T12:42:24;50.63;;;18.63;;
21647;SDS011;10985;54.182;7.890;2023-04-15T12:44:49;59.78;;;19.58;;
21647;SDS011;10985;54.182;7.890;2023-04-15T12:47:15;54.78;;;19.15;;
21647;SDS011;10985;54.182;7.890;2023-04-15T12:49:40;58.00;;;20.92;;
21647;SDS011;10985;54.182;7.890;2023-04-15T12:52:06;50.70;;;20.05;;
21647;SDS011;10985;54.182;7.890;2023-04-15T12:54:33;54.85;;;19.85;;
21647;SDS011;10985;54.182;7.890;2023-04-15T12:56:59;46.08;;;20.02;;
21647;SDS011;10985;54.182;7.890;2023-04-15T12:59:27;51.58;;;18.83;;
21647;SDS011;10985;54.182;7.890;2023-04-15T13:01:53;59.17;;;19.52;;
21647;SDS011;10985;54.182;7.890;2023-04-15T13:04:18;48.25;;;19.13;;
21647;SDS011;10985;54.182;7.890;2023-04-15T13:06:45;48.50;;;18.73;;
21647;SDS011;10985;54.182;7.890;2023-04-15T13:09:10;44.50;;;18.75;;
21647;SDS011;10985;54.182;7.890;2023-04-15T13:11:36;51.00;;;17.70;;
21647;SDS011;10985;54.182;7.890;2023-04-15T13:14:02;52.30;;;19.08;;
21647;SDS011;10985;54.182;7.890;2023-04-15T13:16:29;47.00;;;17.48;;
21647;SDS011;10985;54.182;7.890;2023-04-15T13:18:55;50.20;;;19.35;;
21647;SDS011;10985;54.182;7.890;2023-04-15T13:21:21;45.35;;;17.58;;
21647;SDS011;10985;54.182;7.890;2023-04-15T13:23:47;50.92;;;18.30;;
21647;SDS011;10985;54.182;7.890;2023-04-15T13:26:14;46.08;;;17.83;;
21647;SDS011;10985;54.182;7.890;2023-04-15T13:28:40;49.22;;;17.63;;
21647;SDS011;10985;54.182;7.890;2023-04-15T13:31:05;46.25;;;17.92;;
21647;SDS011;10985;54.182;7.890;2023-04-15T13:33:31;49.67;;;19.05;;
21647;SDS011;10985;54.182;7.890;2023-04-15T13:35:56;43.13;;;18.35;;
21647;SDS011;10985;54.182;7.890;2023-04-15T13:38:23;49.58;;;18.27;;
21647;SDS011;10985;54.182;7.890;2023-04-15T13:40:49;39.50;;;17.77;;
21647;SDS011;10985;54.182;7.890;2023-04-15T13:43:14;48.28;;;17.33;;
21647;SDS011;10985;54.182;7.890;2023-04-15T13:45:41;50.47;;;18.48;;
21647;SDS011;10985;54.182;7.890;2023-04-15T13:48:07;39.90;;;18.05;;
21647;SDS011;10985;54.182;7.890;2023-04-15T13:50:32;43.90;;;18.60;;
21647;SDS011;10985;54.182;7.890;2023-04-15T13:52:58;40.78;;;18.63;;
21647;SDS011;10985;54.182;7.890;2023-04-15T13:55:23;38.85;;;18.70;;
21647;SDS011;10985;54.182;7.890;2023-04-15T13:57:49;39.75;;;18.30;;
21647;SDS011;10985;54.182;7.890;2023-04-15T14:00:15;38.70;;;19.50;;
21647;SDS011;10985;54.182;7.890;2023-04-15T14:02:41;38.13;;;18.80;;
21647;SDS011;10985;54.182;7.890;2023-04-15T14:05:07;43.55;;;19.70;;
21647;SDS011;10985;54.182;7.890;2023-04-15T14:07:32;42.33;;;20.08;;
21647;SDS011;10985;54.182;7.890;2023-04-15T14:09:58;51.05;;;19.92;;
21647;SDS011;10985;54.182;7.890;2023-04-15T14:12:24;42.90;;;20.25;;
21647;SDS011;10985;54.182;7.890;2023-04-15T14:14:50;44.58;;;19.48;;
21647;SDS011;10985;54.182;7.890;2023-04-15T14:17:15;34.67;;;18.67;;
21647;SDS011;10985;54.182;7.890;2023-04-15T14:19:41;47.80;;;20.77;;
21647;SDS011;10985;54.182;7.890;2023-04-15T14:22:06;44.92;;;20.25;;
21647;SDS011;10985;54.182;7.890;2023-04-15T14:24:32;40.25;;;20.23;;
21647;SDS011;10985;54.182;7.890;2023-04-15T14:26:57;36.83;;;19.48;;
21647;SDS011;10985;54.182;7.890;2023-04-15T14:29:23;39.85;;;20.52;;
21647;SDS011;10985;54.182;7.890;2023-04-15T14:31:49;44.33;;;20.85;;
21647;SDS011;10985;54.182;7.890;2023-04-15T14:34:15;47.67;;;21.60;;
21647;SDS011;10985;54.182;7.890;2023-04-15T14:36:41;49.33;;;23.20;;
21647;SDS011;10985;54.182;7.890;2023-04-15T14:39:07;49.42;;;22.73;;